Time;durP1;ratioP1;P1;durP2;ratioP2;P2;SDS_P1;SDS_P2;PMS_P1;PMS_P2;Temp;Humidity;BMP_temperature;BMP_pressure;BME280_temperature;BME280_humidity;BME280_pressure;Samples;Min_cycle;Max_cycle;Signal;HPM_P1;HPM_P2
2022/07/30 00:01:30;;;;;;;8.88;6.30;;;15.30;99.90;;;;;;5014449;28;20077;-87
2022/07/30 00:03:55;;;;;;;7.68;6.35;;;15.30;99.90;;;;;;4997157;28;20057;-88
2022/07/30 00:06:22;;;;;;;13.50;6.53;;;15.30;99.90;;;;;;4980460;28;20137;-90
2022/07/30 00:08:48;;;;;;;9.88;6.65;;;15.30;99.90;;;;;;4965820;28;20113;-86
2022/07/30 00:11:14;;;;;;;10.90;6.60;;;15.20;99.90;;;;;;4997277;28;20057;-87
2022/07/30 00:13:39;;;;;;;10.40;7.20;;;15.20;99.90;;;;;;4997032;28;20073;-87
2022/07/30 00:16:06;;;;;;;7.65;6.35;;;15.20;99.90;;;;;;5010959;28;20490;-85
2022/07/30 00:18:32;;;;;;;13.15;8.50;;;15.20;99.90;;;;;;5020670;28;20042;-86
2022/07/30 00:20:57;;;;;;;8.60;6.97;;;15.10;99.90;;;;;;5000103;28;20056;-86
2022/07/30 00:23:23;;;;;;;9.10;6.45;;;15.10;99.90;;;;;;5000114;28;20081;-86
2022/07/30 00:25:49;;;;;;;9.13;7.30;;;15.10;99.90;;;;;;4998807;28;20100;-86
2022/07/30 00:28:14;;;;;;;8.43;7.53;;;15.10;99.90;;;;;;4982998;28;20473;-86
2022/07/30 00:30:40;;;;;;;8.98;7.75;;;15.00;99.90;;;;;;4998615;28;20072;-87
2022/07/30 00:33:06;;;;;;;11.60;7.57;;;15.00;99.90;;;;;;4982611;28;20409;-88
2022/07/30 00:35:31;;;;;;;12.98;8.38;;;15.00;99.90;;;;;;4998502;28;20505;-88
2022/07/30 00:37:57;;;;;;;12.95;9.07;;;14.90;99.90;;;;;;4982401;28;20089;-87
2022/07/30 00:40:23;;;;;;;9.60;8.40;;;14.90;99.90;;;;;;4999178;28;20042;-86
2022/07/30 00:42:49;;;;;;;11.88;8.32;;;14.90;99.90;;;;;;4998888;28;20054;-86
2022/07/30 00:45:15;;;;;;;9.85;8.15;;;14.90;99.90;;;;;;4982530;28;20108;-86
2022/07/30 00:47:41;;;;;;;11.35;8.48;;;14.80;99.90;;;;;;4993546;28;20049;-89
2022/07/30 00:50:08;;;;;;;10.77;8.55;;;14.80;99.90;;;;;;5005585;28;20068;-89
2022/07/30 00:52:34;;;;;;;11.32;8.50;;;14.80;99.90;;;;;;5000627;28;20081;-86
2022/07/30 00:55:00;;;;;;;10.48;8.25;;;14.80;99.90;;;;;;5010603;28;20478;-85
2022/07/30 00:57:26;;;;;;;11.07;8.18;;;14.70;99.90;;;;;;4982455;28;20058;-85
2022/07/30 00:59:52;;;;;;;10.60;8.10;;;14.70;99.90;;;;;;4985681;28;20414;-87
2022/07/30 01:02:18;;;;;;;12.43;8.27;;;14.70;99.90;;;;;;5024237;28;20052;-86
2022/07/30 01:04:44;;;;;;;9.63;8.50;;;14.70;99.90;;;;;;4988670;28;20053;-90
2022/07/30 01:07:09;;;;;;;12.77;8.35;;;14.60;99.90;;;;;;5031427;28;20042;-86
2022/07/30 01:09:36;;;;;;;10.88;8.27;;;14.60;99.90;;;;;;5000890;28;20046;-86
2022/07/30 01:12:02;;;;;;;12.35;8.35;;;14.60;99.90;;;;;;5002792;28;20479;-86
2022/07/30 01:14:27;;;;;;;8.30;7.50;;;14.50;99.90;;;;;;4983838;28;20056;-87
2022/07/30 01:16:53;;;;;;;10.32;8.15;;;14.50;99.90;;;;;;4981968;28;20057;-86
2022/07/30 01:22:12;;;;;;;10.48;8.38;;;14.40;99.90;;;;;;4984214;28;20057;-84
2022/07/30 01:25:32;;;;;;;11.57;8.10;;;14.40;99.90;;;;;;4982030;28;20085;-85
2022/07/30 01:28:09;;;;;;;10.77;8.48;;;14.40;99.90;;;;;;4938233;29;20058;-87
2022/07/30 01:30:37;;;;;;;9.90;8.02;;;14.40;99.90;;;;;;4964832;28;20108;-86
2022/07/30 01:33:03;;;;;;;9.88;7.78;;;14.30;99.90;;;;;;4996999;28;20061;-87
2022/07/30 01:35:30;;;;;;;10.02;8.18;;;14.30;99.90;;;;;;4996394;28;20497;-86
2022/07/30 01:37:55;;;;;;;9.85;7.65;;;14.30;99.90;;;;;;4980502;28;20050;-85
2022/07/30 01:40:22;;;;;;;12.25;8.93;;;14.20;99.90;;;;;;4996774;28;20061;-86
2022/07/30 01:42:53;;;;;;;13.38;9.05;;;14.20;99.90;;;;;;4999096;28;20497;-85
2022/07/30 01:45:19;;;;;;;9.07;8.13;;;14.20;99.90;;;;;;4997773;28;20263;-88
2022/07/30 01:47:44;;;;;;;13.10;8.00;;;14.20;99.90;;;;;;4982700;28;20092;-85
2022/07/30 01:50:14;;;;;;;10.65;8.75;;;14.10;99.90;;;;;;4998497;28;20088;-85
2022/07/30 01:52:44;;;;;;;12.13;8.52;;;14.10;99.90;;;;;;4998152;28;20401;-87
2022/07/30 01:55:11;;;;;;;10.02;8.82;;;14.20;99.90;;;;;;4980805;28;20058;-86
2022/07/30 01:57:36;;;;;;;14.32;9.43;;;14.10;99.90;;;;;;4997098;28;20567;-85
2022/07/30 02:00:04;;;;;;;10.60;8.82;;;14.10;99.90;;;;;;4997354;28;20089;-86
2022/07/30 02:02:29;;;;;;;11.13;8.90;;;14.00;99.90;;;;;;5001725;28;20068;-87
2022/07/30 02:04:55;;;;;;;12.00;9.70;;;14.00;99.90;;;;;;5018743;28;20057;-87
2022/07/30 02:07:29;;;;;;;11.32;9.50;;;14.00;99.90;;;;;;5009080;28;20049;-87
2022/07/30 02:10:04;;;;;;;13.75;10.27;;;14.00;99.90;;;;;;5008460;28;20042;-86
2022/07/30 02:12:30;;;;;;;13.75;10.57;;;13.90;99.90;;;;;;4989403;28;20045;-90
2022/07/30 02:15:05;;;;;;;11.80;9.88;;;13.90;99.90;;;;;;5020576;28;20038;-89
2022/07/30 02:17:44;;;;;;;14.00;10.80;;;13.90;99.90;;;;;;5022196;28;20061;-89
2022/07/30 02:20:12;;;;;;;12.18;10.30;;;13.90;99.90;;;;;;4992409;28;20037;-93
2022/07/30 02:22:39;;;;;;;12.65;11.07;;;13.80;99.90;;;;;;5021779;28;20042;-86
2022/07/30 02:25:06;;;;;;;14.38;10.60;;;13.80;99.90;;;;;;5003279;28;20065;-86
2022/07/30 02:27:34;;;;;;;14.43;11.00;;;13.80;99.90;;;;;;5024217;28;20042;-86
2022/07/30 02:29:59;;;;;;;14.45;10.80;;;13.70;99.90;;;;;;5014141;28;20045;-85
2022/07/30 02:32:28;;;;;;;13.50;10.77;;;13.70;99.90;;;;;;5011316;28;20061;-87
2022/07/30 02:34:56;;;;;;;16.20;12.05;;;13.60;99.90;;;;;;5010257;28;20057;-87
2022/07/30 02:37:22;;;;;;;15.30;11.43;;;13.70;99.90;;;;;;4974687;28;20058;-87
2022/07/30 02:39:49;;;;;;;15.00;11.25;;;13.60;99.90;;;;;;4992975;28;20065;-87
2022/07/30 02:42:14;;;;;;;13.57;11.05;;;13.60;99.90;;;;;;4978535;28;20754;-86
2022/07/30 02:44:41;;;;;;;15.20;10.75;;;13.70;99.90;;;;;;4990779;28;20169;-88
2022/07/30 02:47:07;;;;;;;15.73;11.40;;;13.60;99.90;;;;;;5006281;28;20054;-87
2022/07/30 02:49:34;;;;;;;13.98;12.20;;;13.50;99.90;;;;;;5006392;28;20562;-85
2022/07/30 02:52:00;;;;;;;15.52;12.10;;;13.60;99.90;;;;;;5007441;28;20505;-84
2022/07/30 02:54:26;;;;;;;12.63;11.02;;;13.50;99.90;;;;;;4992832;28;20113;-85
2022/07/30 02:56:52;;;;;;;15.02;11.40;;;13.50;99.90;;;;;;4992093;28;20089;-84
2022/07/30 02:59:18;;;;;;;12.05;10.77;;;13.50;99.90;;;;;;4992414;28;20548;-86
2022/07/30 03:01:44;;;;;;;15.57;11.82;;;13.40;99.90;;;;;;4989663;28;20101;-85
2022/07/30 03:04:09;;;;;;;17.13;11.80;;;13.40;99.90;;;;;;4987395;28;20085;-85
2022/07/30 03:06:35;;;;;;;15.45;12.10;;;13.40;99.90;;;;;;5001733;28;20050;-86
2022/07/30 03:09:01;;;;;;;18.65;13.48;;;13.40;99.90;;;;;;5001450;28;20470;-85
2022/07/30 03:11:27;;;;;;;17.05;13.98;;;13.30;99.90;;;;;;5000625;28;20061;-87
2022/07/30 03:13:53;;;;;;;20.65;14.48;;;13.30;99.90;;;;;;5001510;28;20053;-87
2022/07/30 03:16:18;;;;;;;19.27;14.63;;;13.30;99.90;;;;;;5000275;28;20056;-86
2022/07/30 03:18:44;;;;;;;17.88;14.00;;;13.30;99.90;;;;;;5000158;28;20061;-87
2022/07/30 03:21:10;;;;;;;20.02;14.82;;;13.30;99.90;;;;;;5016240;28;20137;-86
2022/07/30 03:23:36;;;;;;;24.02;17.20;;;13.30;99.90;;;;;;4999617;28;20468;-86
2022/07/30 03:26:04;;;;;;;20.75;17.55;;;13.30;99.90;;;;;;5000168;28;20050;-86
2022/07/30 03:28:30;;;;;;;19.83;16.90;;;13.30;99.90;;;;;;4982951;28;20132;-87
2022/07/30 03:30:56;;;;;;;19.10;16.67;;;13.30;99.90;;;;;;4999627;28;20050;-86
2022/07/30 03:33:21;;;;;;;22.58;17.98;;;13.30;99.90;;;;;;4984202;28;20049;-86
2022/07/30 03:35:48;;;;;;;26.02;20.83;;;13.20;99.90;;;;;;5000869;28;20111;-88
2022/07/30 03:38:13;;;;;;;26.42;19.85;;;13.30;99.90;;;;;;4999361;28;20141;-87
2022/07/30 03:40:40;;;;;;;27.08;20.70;;;13.30;99.90;;;;;;5017417;28;20136;-87
2022/07/30 03:43:08;;;;;;;29.13;20.13;;;13.30;99.90;;;;;;5039389;28;20030;-90
2022/07/30 03:45:33;;;;;;;28.33;19.95;;;13.30;99.90;;;;;;5022455;28;20069;-89
2022/07/30 03:47:59;;;;;;;23.45;19.63;;;13.30;99.90;;;;;;5022585;28;20033;-91
2022/07/30 03:50:25;;;;;;;25.60;19.10;;;13.30;99.90;;;;;;5022262;28;20025;-89
2022/07/30 03:52:51;;;;;;;25.60;19.58;;;13.30;99.90;;;;;;5022532;28;20030;-85
2022/07/30 03:55:17;;;;;;;23.98;19.13;;;13.30;99.90;;;;;;5005196;28;20060;-86
2022/07/30 03:57:42;;;;;;;24.17;18.75;;;13.30;99.90;;;;;;4999199;28;20116;-88
2022/07/30 04:00:13;;;;;;;23.45;18.23;;;13.30;99.90;;;;;;5015704;28;20073;-85
2022/07/30 04:02:42;;;;;;;24.55;18.80;;;13.30;99.90;;;;;;4999606;28;20050;-85
2022/07/30 04:05:08;;;;;;;23.98;17.30;;;13.30;99.90;;;;;;5015175;28;20438;-86
2022/07/30 04:07:34;;;;;;;21.77;16.23;;;13.30;99.90;;;;;;4998905;28;20149;-86
2022/07/30 04:10:00;;;;;;;22.48;17.00;;;13.30;99.90;;;;;;4998256;28;20053;-86
2022/07/30 04:12:25;;;;;;;21.45;16.85;;;13.40;99.90;;;;;;5004460;28;20060;-86
2022/07/30 04:14:52;;;;;;;21.10;16.95;;;13.40;99.90;;;;;;5010169;28;20086;-86
2022/07/30 04:17:26;;;;;;;21.52;16.75;;;13.40;99.90;;;;;;5007478;28;20075;-87
2022/07/30 04:19:55;;;;;;;19.02;14.73;;;13.50;99.90;;;;;;5005528;28;20143;-85
2022/07/30 04:22:25;;;;;;;19.45;15.32;;;13.50;99.90;;;;;;4989894;28;20056;-86
2022/07/30 04:24:51;;;;;;;20.65;15.68;;;13.60;99.90;;;;;;5006106;28;20145;-86
2022/07/30 04:27:17;;;;;;;18.27;14.40;;;13.60;99.90;;;;;;5022031;28;20050;-86
2022/07/30 04:29:42;;;;;;;21.33;14.57;;;13.70;99.90;;;;;;5006206;28;20046;-87
2022/07/30 04:32:08;;;;;;;17.50;14.05;;;13.70;99.90;;;;;;5002728;28;20056;-86
2022/07/30 04:34:34;;;;;;;15.82;14.13;;;13.80;99.90;;;;;;5019151;28;20054;-86
2022/07/30 04:37:00;;;;;;;18.70;14.25;;;13.80;99.90;;;;;;5005156;28;20111;-86
2022/07/30 04:39:25;;;;;;;18.92;13.68;;;13.80;99.90;;;;;;5019421;28;20608;-88
2022/07/30 04:41:52;;;;;;;15.90;13.43;;;14.00;99.90;;;;;;5023511;28;20049;-86
2022/07/30 04:44:18;;;;;;;17.77;13.00;;;14.10;99.90;;;;;;5004152;28;20038;-85
2022/07/30 04:46:44;;;;;;;15.00;12.30;;;14.30;99.90;;;;;;5005308;28;20057;-86
2022/07/30 04:49:10;;;;;;;13.70;11.60;;;14.70;99.90;;;;;;5005400;28;20050;-86
2022/07/30 04:51:36;;;;;;;18.92;13.15;;;15.20;99.90;;;;;;4975273;28;20097;-86
2022/07/30 04:54:02;;;;;;;16.48;11.40;;;15.80;99.90;;;;;;5001498;28;20054;-87
2022/07/30 04:56:29;;;;;;;16.20;11.18;;;16.40;99.90;;;;;;4982191;28;20084;-86
2022/07/30 04:58:54;;;;;;;14.68;11.63;;;16.80;99.90;;;;;;4983244;28;20055;-86
2022/07/30 05:01:26;;;;;;;13.43;10.85;;;17.30;99.90;;;;;;4985927;28;20042;-87
2022/07/30 05:03:52;;;;;;;12.93;10.10;;;17.80;99.90;;;;;;4999441;28;20050;-86
2022/07/30 05:06:18;;;;;;;14.27;10.50;;;18.20;99.90;;;;;;5008395;28;20046;-88
2022/07/30 05:08:44;;;;;;;12.60;10.57;;;18.50;99.90;;;;;;5017314;28;20042;-91
2022/07/30 05:11:13;;;;;;;12.13;9.80;;;18.70;99.90;;;;;;4999859;28;20042;-86
2022/07/30 05:13:47;;;;;;;10.68;9.52;;;18.90;99.90;;;;;;4977371;28;20073;-88
2022/07/30 05:16:16;;;;;;;11.07;9.77;;;19.20;99.90;;;;;;4982599;28;20053;-87
2022/07/30 05:18:41;;;;;;;17.63;9.77;;;19.40;99.90;;;;;;4979428;28;20042;-88
2022/07/30 05:21:07;;;;;;;10.75;9.63;;;19.60;99.90;;;;;;4979474;28;20061;-88
2022/07/30 05:23:33;;;;;;;10.02;9.05;;;19.80;99.90;;;;;;4962820;28;20097;-86
2022/07/30 05:25:59;;;;;;;12.50;9.30;;;20.20;99.90;;;;;;4994867;28;20054;-86
2022/07/30 05:28:27;;;;;;;9.93;8.90;;;20.10;99.90;;;;;;4962452;28;20429;-88
2022/07/30 05:30:53;;;;;;;11.20;9.07;;;20.50;99.90;;;;;;4978211;28;20125;-88
2022/07/30 05:33:20;;;;;;;10.80;9.13;;;20.70;99.90;;;;;;4978094;28;20044;-87
2022/07/30 05:35:46;;;;;;;10.90;9.45;;;20.60;99.90;;;;;;4995644;28;20046;-86
2022/07/30 05:38:12;;;;;;;10.45;9.25;;;20.50;99.90;;;;;;4977936;28;20129;-86
2022/07/30 05:40:37;;;;;;;10.55;8.55;;;20.40;99.90;;;;;;4978522;28;20132;-88
2022/07/30 05:43:03;;;;;;;9.85;8.70;;;20.50;99.90;;;;;;4978307;28;20053;-87
2022/07/30 05:45:29;;;;;;;10.75;8.40;;;20.70;99.90;;;;;;4979691;28;20389;-87
2022/07/30 05:47:54;;;;;;;8.75;7.80;;;20.90;99.90;;;;;;4986597;28;20049;-87
2022/07/30 05:50:20;;;;;;;9.45;8.45;;;21.30;99.90;;;;;;4983854;28;20125;-87
2022/07/30 05:52:46;;;;;;;11.93;8.45;;;21.20;99.90;;;;;;5002361;28;20054;-86
2022/07/30 05:55:11;;;;;;;8.93;7.90;;;21.40;99.90;;;;;;4967796;28;20122;-88
2022/07/30 05:57:37;;;;;;;8.85;7.95;;;21.40;99.90;;;;;;4982606;28;20058;-88
2022/07/30 06:00:06;;;;;;;9.25;8.35;;;21.80;99.90;;;;;;4996831;28;20035;-88
2022/07/30 06:02:32;;;;;;;9.98;8.15;;;22.10;99.90;;;;;;4961767;28;20133;-87
2022/07/30 06:04:58;;;;;;;8.50;7.55;;;21.80;99.90;;;;;;4977414;28;20137;-89
2022/07/30 06:07:23;;;;;;;8.82;7.93;;;22.00;99.90;;;;;;4977207;28;20062;-87
2022/07/30 06:09:49;;;;;;;8.63;7.78;;;22.30;99.90;;;;;;4977411;28;20055;-87
2022/07/30 06:12:15;;;;;;;9.57;7.90;;;22.40;99.90;;;;;;4977154;28;20079;-89
2022/07/30 06:14:40;;;;;;;8.50;7.70;;;22.70;99.90;;;;;;4977046;28;20581;-87
2022/07/30 06:17:06;;;;;;;8.63;7.80;;;23.20;99.90;;;;;;4977576;28;20050;-86
2022/07/30 06:19:32;;;;;;;8.68;6.80;;;23.40;99.90;;;;;;4978774;28;20046;-89
2022/07/30 06:21:57;;;;;;;8.00;7.25;;;23.30;99.90;;;;;;4979682;28;20050;-89
2022/07/30 06:24:23;;;;;;;10.15;8.15;;;23.20;99.90;;;;;;4989316;28;20046;-87
2022/07/30 06:26:49;;;;;;;8.15;7.35;;;23.10;99.90;;;;;;4984657;28;20057;-88
2022/07/30 06:29:14;;;;;;;9.07;7.60;;;23.10;99.90;;;;;;4998327;28;20030;-86
2022/07/30 06:31:40;;;;;;;7.90;7.07;;;23.30;99.90;;;;;;4999310;28;20023;-93
2022/07/30 06:34:08;;;;;;;7.82;7.03;;;23.70;99.90;;;;;;4999428;28;20038;-89
2022/07/30 06:36:34;;;;;;;7.85;7.07;;;24.00;99.90;;;;;;4979988;28;20078;-89
2022/07/30 06:39:01;;;;;;;9.18;6.88;;;23.70;99.90;;;;;;4987498;28;20053;-88
2022/07/30 06:41:27;;;;;;;7.82;6.47;;;23.60;99.90;;;;;;4979186;28;20050;-89
2022/07/30 06:43:52;;;;;;;7.85;6.95;;;24.40;99.90;;;;;;4978974;28;20142;-90
2022/07/30 06:46:18;;;;;;;7.50;6.78;;;24.40;99.90;;;;;;4978282;28;20049;-89
2022/07/30 06:48:43;;;;;;;7.35;6.60;;;24.00;99.90;;;;;;4977754;28;20517;-90
2022/07/30 06:51:09;;;;;;;7.57;6.88;;;24.30;99.90;;;;;;4977191;28;20130;-89
2022/07/30 06:53:35;;;;;;;7.88;6.28;;;24.40;99.90;;;;;;4961228;28;20593;-90
2022/07/30 06:56:00;;;;;;;6.63;5.97;;;24.60;99.90;;;;;;4977193;28;20058;-91
2022/07/30 06:58:26;;;;;;;8.65;5.93;;;25.10;99.90;;;;;;4977877;28;20113;-87
2022/07/30 07:00:52;;;;;;;7.72;6.05;;;25.00;99.90;;;;;;4978172;28;20050;-88
2022/07/30 07:03:17;;;;;;;6.50;5.90;;;25.40;99.90;;;;;;4961884;28;20077;-88
2022/07/30 07:05:43;;;;;;;7.28;5.63;;;25.30;99.90;;;;;;5007034;28;20049;-87
2022/07/30 07:08:09;;;;;;;7.78;5.55;;;25.30;99.90;;;;;;5000969;28;20451;-90
2022/07/30 07:10:34;;;;;;;7.68;5.15;;;25.40;99.90;;;;;;4967747;28;20045;-89
2022/07/30 07:13:00;;;;;;;6.93;5.38;;;25.40;99.90;;;;;;5000083;28;20057;-89
2022/07/30 07:15:26;;;;;;;8.60;5.47;;;25.40;99.90;;;;;;5000537;28;20121;-92
2022/07/30 07:17:53;;;;;;;9.75;5.22;;;25.40;99.90;;;;;;4967865;28;20072;-91
2022/07/30 07:20:18;;;;;;;7.10;5.25;;;25.70;99.90;;;;;;5000384;28;20124;-89
2022/07/30 07:22:44;;;;;;;10.68;6.30;;;25.90;99.90;;;;;;4983976;28;20081;-89
2022/07/30 07:25:10;;;;;;;8.18;6.75;;;25.60;99.90;;;;;;4984500;28;20116;-89
2022/07/30 07:27:36;;;;;;;9.13;5.90;;;25.70;99.90;;;;;;4999348;28;20081;-91
2022/07/30 07:30:01;;;;;;;9.27;7.00;;;25.40;99.90;;;;;;5015181;28;20041;-91
2022/07/30 07:32:27;;;;;;;7.63;5.90;;;25.50;99.90;;;;;;4967871;28;20073;-92
2022/07/30 07:34:53;;;;;;;8.48;5.97;;;25.90;99.90;;;;;;4969296;28;20049;-89
2022/07/30 07:37:18;;;;;;;7.93;6.03;;;26.30;99.90;;;;;;4970376;28;20042;-90
2022/07/30 07:39:44;;;;;;;9.23;6.13;;;26.00;99.90;;;;;;4967806;28;20057;-91
2022/07/30 07:42:10;;;;;;;8.57;5.72;;;25.80;99.90;;;;;;4983340;28;20049;-92
2022/07/30 07:44:36;;;;;;;6.20;4.90;;;26.70;99.90;;;;;;4953794;28;20042;-88
2022/07/30 07:47:01;;;;;;;6.63;5.28;;;26.60;99.90;;;;;;4970451;28;20345;-89
2022/07/30 07:49:27;;;;;;;9.35;5.13;;;26.90;99.90;;;;;;4987367;28;20029;-90
2022/07/30 07:51:53;;;;;;;6.40;5.47;;;27.00;99.90;;;;;;4972883;28;20033;-89
2022/07/30 07:54:19;;;;;;;10.30;5.35;;;27.00;99.90;;;;;;4996609;28;20048;-90
2022/07/30 07:56:45;;;;;;;7.53;4.82;;;26.50;99.90;;;;;;5013758;28;20079;-91
2022/07/30 07:59:10;;;;;;;8.73;4.65;;;26.50;99.90;;;;;;4993368;28;20050;-91
2022/07/30 08:01:36;;;;;;;7.47;4.80;;;27.30;99.90;;;;;;5011732;28;20092;-92
2022/07/30 08:04:02;;;;;;;6.85;4.82;;;26.90;99.90;;;;;;4977612;28;20133;-94
2022/07/30 08:06:28;;;;;;;6.50;4.55;;;27.30;99.90;;;;;;4992517;28;20125;-94
2022/07/30 08:08:54;;;;;;;8.77;4.78;;;27.20;99.90;;;;;;4987560;28;20490;-89
2022/07/30 08:11:20;;;;;;;8.25;4.70;;;27.90;99.90;;;;;;4982471;28;20047;-91
2022/07/30 08:13:47;;;;;;;6.15;4.65;;;28.20;99.90;;;;;;4964591;28;20482;-90
2022/07/30 08:16:13;;;;;;;5.68;4.18;;;28.40;99.90;;;;;;4961921;28;20112;-93
2022/07/30 08:18:39;;;;;;;6.95;4.72;;;28.30;99.90;;;;;;4978174;28;20046;-91
2022/07/30 08:21:04;;;;;;;5.97;4.75;;;27.90;99.90;;;;;;4978016;28;20541;-92
2022/07/30 08:23:30;;;;;;;7.32;4.40;;;27.70;99.90;;;;;;4978181;28;20054;-91
2022/07/30 08:25:57;;;;;;;4.88;4.03;;;27.50;99.90;;;;;;4962211;28;20058;-89
2022/07/30 08:28:23;;;;;;;7.40;4.65;;;27.30;99.90;;;;;;4997496;28;20525;-88
2022/07/30 08:30:49;;;;;;;7.85;4.50;;;27.40;99.90;;;;;;4990409;28;20112;-88
2022/07/30 08:33:14;;;;;;;8.98;4.80;;;28.00;99.90;;;;;;4968358;28;20054;-89
2022/07/30 08:35:40;;;;;;;5.55;4.78;;;28.00;99.90;;;;;;4964448;28;20062;-92
2022/07/30 08:38:06;;;;;;;5.72;4.13;;;28.00;99.90;;;;;;4989973;28;20277;-87
2022/07/30 08:40:33;;;;;;;4.75;4.20;;;27.90;99.90;;;;;;5002742;28;20053;-91
2022/07/30 08:42:59;;;;;;;6.68;4.22;;;28.00;99.90;;;;;;4984550;28;20528;-90
2022/07/30 08:45:25;;;;;;;5.80;3.67;;;27.60;99.90;;;;;;4983073;28;20053;-89
2022/07/30 08:47:51;;;;;;;5.70;3.65;;;28.00;99.90;;;;;;5002567;28;20132;-88
2022/07/30 08:50:16;;;;;;;6.13;3.50;;;28.80;99.90;;;;;;5002639;28;20457;-88
2022/07/30 08:52:42;;;;;;;9.43;3.85;;;28.70;99.90;;;;;;4977031;28;20101;-88
2022/07/30 08:55:08;;;;;;;4.60;3.40;;;28.80;99.90;;;;;;4971950;28;20402;-88
2022/07/30 08:57:34;;;;;;;5.22;3.92;;;28.80;99.90;;;;;;4974730;28;20137;-87
2022/07/30 09:00:00;;;;;;;5.70;3.38;;;29.00;99.90;;;;;;5005106;28;20046;-88
2022/07/30 09:02:26;;;;;;;5.18;3.65;;;28.80;99.90;;;;;;4973434;28;20053;-88
2022/07/30 09:04:52;;;;;;;7.65;3.50;;;28.40;99.90;;;;;;4985779;28;20048;-90
2022/07/30 09:07:18;;;;;;;5.57;3.33;;;27.80;99.90;;;;;;4981496;28;20041;-89
2022/07/30 09:09:43;;;;;;;5.25;2.90;;;28.40;99.90;;;;;;4993992;28;20117;-85
2022/07/30 09:12:34;;;;;;;5.72;3.53;;;28.60;99.90;;;;;;5019831;28;20040;-84
2022/07/30 09:15:11;;;;;;;6.80;3.45;;;28.20;99.90;;;;;;5025517;28;20072;-87
2022/07/30 09:18:00;;;;;;;4.07;2.95;;;28.70;99.90;;;;;;5016039;28;20089;-86
2022/07/30 09:20:27;;;;;;;3.90;3.20;;;28.40;99.90;;;;;;5004461;28;20069;-89
2022/07/30 09:22:58;;;;;;;6.57;3.58;;;28.70;99.90;;;;;;5019826;28;20072;-84
2022/07/30 09:25:40;;;;;;;4.70;3.33;;;28.70;99.90;;;;;;5012348;28;20081;-87
2022/07/30 09:31:00;;;;;;;4.40;3.33;;;28.70;99.90;;;;;;5096619;22;20066;-87
2022/07/30 09:33:33;;;;;;;6.07;3.20;;;29.20;99.90;;;;;;5007324;28;20052;-88
2022/07/30 09:35:59;;;;;;;6.03;3.10;;;29.00;99.90;;;;;;5020046;28;20041;-87
2022/07/30 09:38:25;;;;;;;5.40;2.88;;;29.40;99.90;;;;;;5019014;28;20049;-88
2022/07/30 09:40:52;;;;;;;4.68;2.40;;;29.40;99.90;;;;;;5004102;28;20391;-87
2022/07/30 09:43:17;;;;;;;3.85;2.60;;;29.40;99.90;;;;;;5002976;28;20077;-87
2022/07/30 09:45:54;;;;;;;3.97;2.72;;;29.60;99.90;;;;;;5018729;28;20064;-86
2022/07/30 09:48:25;;;;;;;4.63;2.55;;;29.20;99.90;;;;;;5019110;28;20099;-88
2022/07/30 09:50:52;;;;;;;5.22;2.42;;;29.30;99.90;;;;;;5000847;28;20171;-87
2022/07/30 09:53:21;;;;;;;4.05;2.38;;;29.30;99.90;;;;;;5016552;28;20049;-87
2022/07/30 09:55:47;;;;;;;5.05;2.50;;;29.40;99.90;;;;;;5019856;28;20386;-88
2022/07/30 09:58:13;;;;;;;4.18;2.58;;;29.20;99.90;;;;;;5002316;28;20056;-87
2022/07/30 10:00:39;;;;;;;5.60;2.40;;;29.30;99.30;;;;;;5015076;28;20050;-88
2022/07/30 10:03:25;;;;;;;3.97;2.33;;;29.50;99.40;;;;;;5015577;28;20060;-88
2022/07/30 10:05:52;;;;;;;5.10;2.85;;;29.60;99.20;;;;;;5016515;28;20045;-87
2022/07/30 10:08:17;;;;;;;4.65;2.70;;;29.40;99.20;;;;;;4983073;28;20060;-86
2022/07/30 10:10:43;;;;;;;7.18;2.47;;;29.40;99.30;;;;;;5015180;28;20037;-86
2022/07/30 10:13:09;;;;;;;6.20;2.83;;;30.10;98.70;;;;;;4999519;28;20053;-87
2022/07/30 10:15:35;;;;;;;3.88;2.47;;;30.00;98.80;;;;;;4998835;28;20045;-87
2022/07/30 10:18:02;;;;;;;3.78;2.40;;;30.20;99.50;;;;;;5015685;28;20132;-88
2022/07/30 10:20:28;;;;;;;5.65;2.72;;;30.30;99.00;;;;;;4999193;28;20080;-87
2022/07/30 10:22:54;;;;;;;5.35;2.90;;;29.90;99.00;;;;;;5016589;28;20057;-87
2022/07/30 10:25:21;;;;;;;7.28;2.40;;;29.60;99.10;;;;;;5015971;28;20064;-87
2022/07/30 10:27:47;;;;;;;4.03;2.67;;;29.60;99.00;;;;;;5000714;28;20124;-87
2022/07/30 10:30:13;;;;;;;6.93;2.80;;;29.50;99.30;;;;;;5044131;28;20109;-88
2022/07/30 10:32:39;;;;;;;5.03;2.63;;;29.80;99.00;;;;;;5018084;28;20060;-85
2022/07/30 10:35:05;;;;;;;5.28;2.53;;;29.50;98.90;;;;;;5037132;28;20026;-86
2022/07/30 10:37:32;;;;;;;4.75;2.50;;;29.50;99.20;;;;;;4988910;28;20056;-87
2022/07/30 10:40:24;;;;;;;7.93;2.70;;;29.50;98.90;;;;;;5042253;28;20037;-87
2022/07/30 10:43:28;;;;;;;3.03;2.05;;;29.50;98.70;;;;;;5009209;28;20092;-88
2022/07/30 10:46:06;;;;;;;4.15;2.33;;;28.90;98.50;;;;;;5039577;28;20105;-88
2022/07/30 10:48:32;;;;;;;4.40;2.35;;;29.40;98.90;;;;;;5031145;28;20037;-86
2022/07/30 10:50:58;;;;;;;6.18;2.60;;;29.70;98.60;;;;;;5001726;28;20057;-87
2022/07/30 10:53:35;;;;;;;4.90;2.38;;;29.50;99.00;;;;;;5004274;28;20076;-88
2022/07/30 10:56:28;;;;;;;3.97;2.30;;;29.90;98.90;;;;;;4992384;28;20064;-86
2022/07/30 10:59:05;;;;;;;4.85;2.05;;;29.30;98.60;;;;;;4987452;28;20540;-87
2022/07/30 11:02:00;;;;;;;4.95;2.47;;;28.80;98.40;;;;;;4973290;28;20053;-87
2022/07/30 11:04:29;;;;;;;3.95;1.80;;;28.10;99.40;;;;;;4974090;28;20088;-88
2022/07/30 11:07:22;;;;;;;4.03;2.13;;;28.70;99.00;;;;;;5023734;28;20057;-89
2022/07/30 11:09:48;;;;;;;;;;;29.10;98.90;;;;;;5006925;28;20046;-88
2022/07/30 11:12:14;;;;;;;6.05;2.38;;;28.80;98.60;;;;;;4989358;28;20297;-87
2022/07/30 11:14:59;;;;;;;5.13;2.78;;;28.50;99.10;;;;;;4972516;28;20160;-87
2022/07/30 11:17:25;;;;;;;3.15;2.35;;;28.20;98.90;;;;;;4989108;28;20049;-88
2022/07/30 11:20:03;;;;;;;2.70;2.25;;;27.50;99.40;;;;;;4985736;28;20058;-87
2022/07/30 11:22:30;;;;;;;4.18;2.15;;;27.50;99.80;;;;;;5001153;28;20060;-88
2022/07/30 11:24:56;;;;;;;2.90;2.60;;;28.20;99.50;;;;;;4985167;28;20050;-87
2022/07/30 11:27:45;;;;;;;3.33;1.90;;;27.80;99.00;;;;;;4982916;28;20447;-88
2022/07/30 11:30:19;;;;;;;3.20;2.22;;;27.60;99.10;;;;;;4951579;28;20552;-88
2022/07/30 11:32:49;;;;;;;6.47;2.38;;;27.60;99.50;;;;;;4989949;28;20062;-87
2022/07/30 11:35:30;;;;;;;5.40;2.10;;;27.90;99.30;;;;;;4998463;28;20061;-89
2022/07/30 11:38:06;;;;;;;4.38;2.28;;;28.10;99.60;;;;;;4986311;28;20394;-88
2022/07/30 11:40:39;;;;;;;4.38;2.28;;;27.90;99.50;;;;;;4980948;28;20451;-87
2022/07/30 11:43:24;;;;;;;5.93;2.30;;;28.00;99.40;;;;;;5014612;28;20054;-89
2022/07/30 11:46:10;;;;;;;5.53;2.95;;;27.40;99.50;;;;;;4980759;28;20054;-88
2022/07/30 11:48:40;;;;;;;4.97;2.30;;;27.20;99.80;;;;;;4997596;28;20050;-87
2022/07/30 11:51:07;;;;;;;5.88;2.50;;;26.70;99.60;;;;;;4994797;28;20045;-88
2022/07/30 11:53:33;;;;;;;6.72;2.40;;;26.20;99.90;;;;;;5002441;28;20064;-86
2022/07/30 11:55:59;;;;;;;3.35;2.40;;;26.70;99.90;;;;;;4988734;28;20034;-88
2022/07/30 11:58:38;;;;;;;3.10;2.10;;;26.80;99.90;;;;;;4970233;28;20084;-87
2022/07/30 12:01:12;;;;;;;4.72;2.20;;;26.80;99.90;;;;;;4983400;28;20129;-87
2022/07/30 12:03:41;;;;;;;;;;;26.60;99.90;;;;;;4984084;28;20132;-89
2022/07/30 12:06:08;;;;;;;5.05;2.28;;;26.10;99.90;;;;;;4984123;28;20419;-89
2022/07/30 12:08:46;;;;;;;3.75;2.55;;;26.70;99.90;;;;;;4968046;28;20058;-87
2022/07/30 12:11:11;;;;;;;5.55;2.10;;;26.60;99.50;;;;;;5002328;28;20046;-88
2022/07/30 12:13:38;;;;;;;5.32;2.40;;;26.90;99.80;;;;;;5013960;28;20060;-86
2022/07/30 12:16:08;;;;;;;3.45;2.10;;;27.30;99.90;;;;;;5004862;28;20049;-89
2022/07/30 12:18:34;;;;;;;3.75;2.20;;;27.40;99.40;;;;;;5003029;28;20042;-87
2022/07/30 12:21:04;;;;;;;3.85;1.90;;;27.60;99.20;;;;;;4985402;28;20066;-87
2022/07/30 12:23:30;;;;;;;4.63;2.17;;;27.30;99.50;;;;;;4974567;28;20125;-87
2022/07/30 12:25:56;;;;;;;5.90;2.30;;;27.20;99.30;;;;;;5012366;28;20121;-88
2022/07/30 12:28:32;;;;;;;3.63;2.00;;;26.70;99.10;;;;;;4979436;28;20120;-86
2022/07/30 12:30:59;;;;;;;4.03;1.90;;;27.00;99.60;;;;;;4995982;28;20113;-87
2022/07/30 12:33:25;;;;;;;4.00;2.40;;;27.00;99.00;;;;;;5013853;28;20053;-88
2022/07/30 12:35:55;;;;;;;3.88;1.90;;;26.40;99.20;;;;;;4964104;28;20145;-87
2022/07/30 12:38:22;;;;;;;7.22;5.43;;;26.10;99.80;;;;;;4982357;28;20088;-87
2022/07/30 12:41:04;;;;;;;3.55;2.08;;;26.20;99.90;;;;;;4980617;28;20049;-87
2022/07/30 12:43:55;;;;;;;3.90;1.90;;;26.30;99.70;;;;;;4997645;28;20050;-88
2022/07/30 12:46:27;;;;;;;4.75;2.00;;;26.80;99.40;;;;;;4943194;28;20061;-89
2022/07/30 12:48:59;;;;;;;4.97;1.98;;;27.10;98.90;;;;;;4987250;28;20102;-88
2022/07/30 12:51:27;;;;;;;2.38;2.00;;;27.10;98.70;;;;;;4976643;28;20045;-89